createdAt,value
2017-05-25T00:00:18.689Z,0
2017-05-25T00:01:28.301Z,0
2017-05-25T00:02:37.913Z,0
2017-05-25T00:03:48.536Z,0
2017-05-25T00:04:58.475Z,0
2017-05-25T00:06:08.088Z,0
2017-05-25T00:07:17.999Z,0
2017-05-25T00:08:27.906Z,0
2017-05-25T00:09:37.572Z,0
2017-05-25T00:10:47.795Z,0
2017-05-25T00:11:57.737Z,0
2017-05-25T00:13:07.960Z,0
2017-05-25T00:14:17.567Z,0
2017-05-25T00:15:27.191Z,0
2017-05-25T00:16:36.811Z,0
2017-05-25T00:17:47.335Z,0
2017-05-25T00:18:57.256Z,0
2017-05-25T00:20:07.178Z,0
2017-05-25T00:21:17.094Z,0
2017-05-25T00:22:27.008Z,0
2017-05-25T00:23:37.585Z,0
2017-05-25T00:24:46.930Z,0
2017-05-25T00:25:56.619Z,0
2017-05-25T00:27:06.521Z,0
2017-05-25T00:28:16.442Z,0
2017-05-25T00:29:26.204Z,0
2017-05-25T00:30:36.428Z,0
2017-05-25T00:31:46.639Z,0
2017-05-25T00:32:56.854Z,0
2017-05-25T00:34:06.464Z,0
2017-05-25T00:35:15.759Z,0
2017-05-25T00:36:25.678Z,0
2017-05-25T00:37:35.585Z,0
2017-05-25T00:38:44.903Z,0
2017-05-25T00:39:55.156Z,0
2017-05-25T00:41:05.184Z,0
2017-05-25T00:42:14.793Z,0
2017-05-25T00:43:24.739Z,0
2017-05-25T00:44:34.672Z,0
2017-05-25T00:45:44.300Z,0
2017-05-25T00:46:54.208Z,0
2017-05-25T00:48:03.826Z,0
2017-05-25T00:49:13.437Z,0
2017-05-25T00:50:23.378Z,0
2017-05-25T00:51:33.610Z,0
2017-05-25T00:52:43.378Z,0
2017-05-25T00:53:53.602Z,0
2017-05-25T00:55:03.526Z,0
2017-05-25T00:56:13.143Z,0
2017-05-25T00:57:23.372Z,0
2017-05-25T00:58:33.138Z,0
2017-05-25T00:59:43.355Z,0
2017-05-25T01:00:53.286Z,0
2017-05-25T01:02:02.900Z,0
2017-05-25T01:03:12.816Z,0
2017-05-25T01:04:22.538Z,0
2017-05-25T01:05:32.754Z,0
2017-05-25T01:06:42.349Z,0
2017-05-25T01:07:52.271Z,0
2017-05-25T01:09:02.183Z,0
2017-05-25T01:10:11.876Z,0
2017-05-25T01:11:21.493Z,0
2017-05-25T01:12:31.704Z,0
2017-05-25T01:13:41.928Z,0
2017-05-25T01:14:51.544Z,0
2017-05-25T01:16:01.768Z,0
2017-05-25T01:17:11.685Z,0
2017-05-25T01:18:21.992Z,0
2017-05-25T01:19:31.920Z,0
2017-05-25T01:20:41.210Z,0
2017-05-25T01:21:50.913Z,0
2017-05-25T01:23:00.518Z,0
2017-05-25T01:24:10.120Z,0
2017-05-25T01:25:20.030Z,0
2017-05-25T01:26:29.948Z,0
2017-05-25T01:27:40.519Z,0
2017-05-25T01:28:50.139Z,0
2017-05-25T01:30:00.083Z,0
2017-05-25T01:31:10.018Z,0
2017-05-25T01:32:19.935Z,0
2017-05-25T01:33:30.026Z,0
2017-05-25T01:34:39.952Z,0
2017-05-25T01:35:50.180Z,0
2017-05-25T01:37:00.452Z,0
2017-05-25T01:38:10.079Z,0
2017-05-25T01:39:20.040Z,0
2017-05-25T01:40:29.351Z,0
2017-05-25T01:41:39.572Z,0
2017-05-25T01:42:49.508Z,0
2017-05-25T01:43:58.820Z,0
2017-05-25T01:45:09.207Z,0
2017-05-25T01:46:19.125Z,0
2017-05-25T01:47:29.355Z,0
2017-05-25T01:48:39.592Z,0
2017-05-25T01:49:49.525Z,0
2017-05-25T01:50:59.288Z,0
2017-05-25T01:52:09.229Z,0
2017-05-25T01:53:19.460Z,0
2017-05-25T01:54:29.071Z,0
2017-05-25T01:55:39.286Z,0
2017-05-25T01:56:49.036Z,0
2017-05-25T01:57:58.960Z,0
2017-05-25T01:59:08.870Z,0
2017-05-25T02:00:18.484Z,0
2017-05-25T02:01:28.086Z,0
2017-05-25T02:02:37.999Z,0
2017-05-25T02:03:47.914Z,0
2017-05-25T02:04:58.155Z,0
2017-05-25T02:06:07.785Z,0
2017-05-25T02:07:17.713Z,0
2017-05-25T02:08:27.672Z,0
2017-05-25T02:09:36.998Z,0
2017-05-25T02:10:46.609Z,0
2017-05-25T02:11:56.836Z,0
2017-05-25T02:13:07.050Z,0
2017-05-25T02:14:16.647Z,0
2017-05-25T02:15:26.243Z,0
2017-05-25T02:16:35.839Z,0
2017-05-25T02:17:45.776Z,0
2017-05-25T02:18:55.752Z,0
2017-05-25T02:20:05.159Z,0
2017-05-25T02:21:15.067Z,0
2017-05-25T02:22:24.683Z,0
2017-05-25T02:23:34.909Z,0
2017-05-25T02:24:44.822Z,0
2017-05-25T02:25:54.596Z,0
2017-05-25T02:27:04.819Z,0
2017-05-25T02:28:14.750Z,0
2017-05-25T02:29:24.682Z,0
2017-05-25T02:30:34.906Z,0
2017-05-25T02:31:44.993Z,0
2017-05-25T02:32:55.216Z,0
2017-05-25T02:34:04.520Z,0
2017-05-25T02:35:14.128Z,0
2017-05-25T02:36:23.749Z,0
2017-05-25T02:37:33.971Z,0
2017-05-25T02:38:44.197Z,0
2017-05-25T02:39:54.415Z,0
2017-05-25T02:41:04.332Z,0
2017-05-25T02:42:14.560Z,0
2017-05-25T02:43:24.795Z,0
2017-05-25T02:44:35.010Z,0
2017-05-25T02:45:44.671Z,0
2017-05-25T02:46:54.647Z,0
2017-05-25T02:48:04.903Z,0
2017-05-25T02:49:14.552Z,0
2017-05-25T02:50:24.164Z,0
2017-05-25T02:51:34.066Z,0
2017-05-25T02:52:43.674Z,0
2017-05-25T02:53:53.901Z,0
2017-05-25T02:55:03.823Z,0
2017-05-25T02:56:13.744Z,0
2017-05-25T02:57:23.033Z,0
2017-05-25T02:58:32.959Z,0
2017-05-25T02:59:42.264Z,0
2017-05-25T03:00:51.576Z,4
2017-05-25T03:02:01.480Z,0
2017-05-25T03:03:11.389Z,0
2017-05-25T03:04:21.327Z,4
2017-05-25T03:05:30.931Z,4
2017-05-25T03:06:41.197Z,4
2017-05-25T03:07:51.121Z,4
2017-05-25T03:09:00.187Z,4
2017-05-25T03:10:09.794Z,4
2017-05-25T03:11:19.091Z,8
2017-05-25T03:12:29.300Z,4
2017-05-25T03:13:39.204Z,8
2017-05-25T03:14:49.458Z,8
2017-05-25T03:15:59.670Z,12
2017-05-25T03:17:09.583Z,8
2017-05-25T03:18:19.199Z,12
2017-05-25T03:19:28.826Z,12
2017-05-25T03:20:38.738Z,16
2017-05-25T03:21:48.943Z,20
2017-05-25T03:22:58.850Z,20
2017-05-25T03:24:08.766Z,20
2017-05-25T03:25:18.989Z,24
2017-05-25T03:26:28.612Z,24
2017-05-25T03:27:38.833Z,28
2017-05-25T03:28:48.446Z,32
2017-05-25T03:29:58.525Z,36
2017-05-25T03:31:08.121Z,36
2017-05-25T03:32:17.745Z,44
2017-05-25T03:33:27.979Z,48
2017-05-25T03:34:37.936Z,52
2017-05-25T03:35:48.309Z,56
2017-05-25T03:36:57.907Z,60
2017-05-25T03:38:07.526Z,64
2017-05-25T03:39:16.831Z,72
2017-05-25T03:40:27.052Z,76
2017-05-25T03:41:37.272Z,84
2017-05-25T03:42:47.184Z,92
2017-05-25T03:43:57.424Z,100
2017-05-25T03:45:06.727Z,104
2017-05-25T03:46:16.695Z,112
2017-05-25T03:47:27.091Z,112
2017-05-25T03:48:36.412Z,120
2017-05-25T03:49:46.705Z,132
2017-05-25T03:50:56.010Z,144
2017-05-25T03:52:05.927Z,152
2017-05-25T03:53:15.995Z,160
2017-05-25T03:54:25.924Z,168
2017-05-25T03:55:35.519Z,176
2017-05-25T03:56:45.435Z,188
2017-05-25T03:57:55.355Z,200
2017-05-25T03:59:05.631Z,212
2017-05-25T04:00:15.308Z,228
2017-05-25T04:01:24.919Z,236
2017-05-25T04:02:34.531Z,248
2017-05-25T04:03:44.511Z,264
2017-05-25T04:04:55.113Z,276
2017-05-25T04:06:05.331Z,296
2017-05-25T04:07:15.259Z,316
2017-05-25T04:08:25.185Z,332
2017-05-25T04:09:35.102Z,344
2017-05-25T04:10:45.491Z,372
2017-05-25T04:11:55.724Z,392
2017-05-25T04:13:05.016Z,404
2017-05-25T04:14:14.987Z,424
2017-05-25T04:15:25.208Z,444
2017-05-25T04:16:35.529Z,468
2017-05-25T04:17:45.438Z,492
2017-05-25T04:18:55.055Z,512
2017-05-25T04:20:04.673Z,536
2017-05-25T04:21:14.674Z,564
2017-05-25T04:22:24.289Z,588
2017-05-25T04:23:34.518Z,608
2017-05-25T04:24:44.147Z,616
2017-05-25T04:25:53.746Z,632
2017-05-25T04:27:03.664Z,660
2017-05-25T04:28:13.274Z,684
2017-05-25T04:29:23.504Z,708
2017-05-25T04:30:33.423Z,728
2017-05-25T04:31:43.412Z,744
2017-05-25T04:32:53.640Z,756
2017-05-25T04:34:03.302Z,768
2017-05-25T04:35:13.553Z,792
2017-05-25T04:36:23.476Z,804
2017-05-25T04:37:33.707Z,820
2017-05-25T04:38:43.924Z,840
2017-05-25T04:39:54.148Z,884
2017-05-25T04:41:04.072Z,920
2017-05-25T04:42:13.694Z,948
2017-05-25T04:43:23.613Z,972
2017-05-25T04:44:33.516Z,1004
2017-05-25T04:45:43.228Z,1032
2017-05-25T04:46:53.444Z,1048
2017-05-25T04:48:03.654Z,1060
2017-05-25T04:49:13.602Z,1084
2017-05-25T04:50:23.835Z,1120
2017-05-25T04:51:33.744Z,1136
2017-05-25T04:52:43.967Z,1144
2017-05-25T04:53:53.595Z,1172
2017-05-25T04:55:03.814Z,1184
2017-05-25T04:56:13.434Z,1028
2017-05-25T04:57:23.041Z,1140
2017-05-25T04:58:32.351Z,1204
2017-05-25T04:59:41.953Z,1172
2017-05-25T05:00:52.194Z,1172
2017-05-25T05:02:02.122Z,1300
2017-05-25T05:03:12.523Z,1284
2017-05-25T05:04:22.449Z,1116
2017-05-25T05:05:32.052Z,1184
2017-05-25T05:06:42.044Z,1236
2017-05-25T05:07:52.285Z,1232
2017-05-25T05:09:02.232Z,1236
2017-05-25T05:10:12.158Z,1404
2017-05-25T05:11:22.389Z,1300
2017-05-25T05:12:32.387Z,1216
2017-05-25T05:13:42.608Z,1256
2017-05-25T05:14:53.177Z,1448
2017-05-25T05:16:02.870Z,1400
2017-05-25T05:17:13.087Z,1388
2017-05-25T05:18:23.009Z,1268
2017-05-25T05:19:33.217Z,1576
2017-05-25T05:20:42.583Z,1684
2017-05-25T05:21:52.814Z,1420
2017-05-25T05:23:02.720Z,1280
2017-05-25T05:24:12.635Z,1764
2017-05-25T05:25:22.558Z,2236
2017-05-25T05:26:32.935Z,1816
2017-05-25T05:27:43.188Z,1544
2017-05-25T05:28:53.428Z,3204
2017-05-25T05:30:03.327Z,3456
2017-05-25T05:31:12.942Z,2416
2017-05-25T05:32:22.251Z,3300
2017-05-25T05:33:31.857Z,2116
2017-05-25T05:34:41.481Z,2044
2017-05-25T05:35:50.858Z,2500
2017-05-25T05:37:00.477Z,2916
2017-05-25T05:38:10.532Z,2260
2017-05-25T05:39:20.449Z,2496
2017-05-25T05:40:30.368Z,2752
2017-05-25T05:41:40.593Z,2260
2017-05-25T05:42:49.914Z,2620
2017-05-25T05:44:00.230Z,1704
2017-05-25T05:45:09.839Z,2204
2017-05-25T05:46:19.451Z,2148
2017-05-25T05:47:29.670Z,1988
2017-05-25T05:48:39.885Z,1840
2017-05-25T05:49:49.811Z,3260
2017-05-25T05:50:59.747Z,2660
2017-05-25T05:52:09.731Z,4012
2017-05-25T05:53:19.337Z,3928
2017-05-25T05:54:29.337Z,2900
2017-05-25T05:55:38.950Z,2012
2017-05-25T05:56:48.866Z,1636
2017-05-25T05:57:58.777Z,1608
2017-05-25T05:59:08.737Z,2172
2017-05-25T06:00:18.365Z,4632
2017-05-25T06:01:28.028Z,4284
2017-05-25T06:02:37.951Z,3316
2017-05-25T06:03:47.289Z,2364
2017-05-25T06:04:57.523Z,3752
2017-05-25T06:06:07.157Z,2776
2017-05-25T06:07:16.918Z,2428
2017-05-25T06:08:26.852Z,2968
2017-05-25T06:09:36.787Z,4280
2017-05-25T06:10:46.402Z,5644
2017-05-25T06:11:55.725Z,5676
2017-05-25T06:13:05.472Z,5840
2017-05-25T06:14:16.256Z,3816
2017-05-25T06:15:26.208Z,2284
2017-05-25T06:16:35.818Z,5364
2017-05-25T06:17:45.718Z,5500
2017-05-25T06:18:56.106Z,5228
2017-05-25T06:20:06.552Z,5672
2017-05-25T06:21:16.466Z,4996
2017-05-25T06:22:26.687Z,5688
2017-05-25T06:23:36.643Z,4140
2017-05-25T06:24:46.418Z,3588
2017-05-25T06:25:56.329Z,3424
2017-05-25T06:27:06.243Z,3944
2017-05-25T06:28:15.543Z,4308
2017-05-25T06:29:25.147Z,4032
2017-05-25T06:30:34.775Z,4796
2017-05-25T06:31:44.683Z,3168
2017-05-25T06:32:54.908Z,4992
2017-05-25T06:34:04.538Z,2904
2017-05-25T06:35:14.763Z,3740
2017-05-25T06:36:24.784Z,4000
2017-05-25T06:37:34.406Z,3508
2017-05-25T06:38:44.634Z,3512
2017-05-25T06:39:54.237Z,3032
2017-05-25T06:41:04.466Z,2832
2017-05-25T06:42:14.782Z,2616
2017-05-25T06:43:24.397Z,3208
2017-05-25T06:44:34.632Z,3680
2017-05-25T06:45:44.556Z,4668
2017-05-25T06:46:54.491Z,4436
2017-05-25T06:48:03.937Z,4168
2017-05-25T06:49:13.860Z,5228
2017-05-25T06:50:22.915Z,6548
2017-05-25T06:51:31.909Z,7032
2017-05-25T06:52:41.525Z,7932
2017-05-25T06:53:51.176Z,6852
2017-05-25T06:55:01.392Z,6164
2017-05-25T06:56:10.690Z,5624
2017-05-25T06:57:20.691Z,6272
2017-05-25T06:58:30.305Z,7012
2017-05-25T06:59:40.675Z,8064
2017-05-25T07:00:50.900Z,6664
2017-05-25T07:02:00.243Z,9108
2017-05-25T07:03:09.837Z,9056
2017-05-25T07:04:20.053Z,9612
2017-05-25T07:05:30.352Z,9128
2017-05-25T07:06:40.271Z,9680
2017-05-25T07:07:50.490Z,11220
2017-05-25T07:09:00.104Z,19040
2017-05-25T07:10:09.718Z,29536
2017-05-25T07:11:19.490Z,37216
2017-05-25T07:12:29.413Z,40960
2017-05-25T07:13:39.338Z,45056
2017-05-25T07:14:48.977Z,43776
2017-05-25T07:15:59.186Z,40448
2017-05-25T07:17:08.792Z,37984
2017-05-25T07:18:18.708Z,38976
2017-05-25T07:19:28.627Z,40032
2017-05-25T07:20:38.557Z,38112
2017-05-25T07:21:48.471Z,38400
2017-05-25T07:22:58.701Z,30912
2017-05-25T07:24:08.927Z,34912
2017-05-25T07:25:18.216Z,36000
2017-05-25T07:26:28.155Z,36000
2017-05-25T07:27:37.785Z,27584
2017-05-25T07:28:47.096Z,34400
2017-05-25T07:29:57.032Z,36448
2017-05-25T07:31:06.660Z,40352
2017-05-25T07:32:15.965Z,39744
2017-05-25T07:33:26.193Z,25664
2017-05-25T07:34:35.898Z,43296
2017-05-25T07:35:45.828Z,41824
2017-05-25T07:36:55.444Z,41248
2017-05-25T07:38:05.047Z,32224
2017-05-25T07:39:14.970Z,45728
2017-05-25T07:40:25.030Z,52224
2017-05-25T07:41:35.276Z,46656
2017-05-25T07:42:45.194Z,45856
2017-05-25T07:43:54.805Z,42112
2017-05-25T07:45:04.720Z,48192
2017-05-25T07:46:14.789Z,50560
2017-05-25T07:47:24.728Z,49472
2017-05-25T07:48:34.955Z,42528
2017-05-25T07:49:45.249Z,44192
2017-05-25T07:50:54.952Z,51648
2017-05-25T07:52:05.332Z,48768
2017-05-25T07:53:15.250Z,46592
2017-05-25T07:54:25.477Z,52064
2017-05-25T07:55:35.443Z,49024
2017-05-25T07:56:45.682Z,50688
2017-05-25T07:57:55.293Z,50080
2017-05-25T07:59:05.232Z,50368
2017-05-25T08:00:14.856Z,53696
2017-05-25T08:01:24.840Z,59232
2017-05-25T08:02:34.769Z,54336
2017-05-25T08:03:45.037Z,54304
2017-05-25T08:04:55.023Z,52160
2017-05-25T08:06:05.260Z,59264
2017-05-25T08:07:15.509Z,57728
2017-05-25T08:08:25.430Z,51232
2017-05-25T08:09:35.260Z,53536
2017-05-25T08:10:45.177Z,56576
2017-05-25T08:11:55.405Z,59008
2017-05-25T08:13:05.371Z,55744
2017-05-25T08:14:14.676Z,55424
2017-05-25T08:15:24.924Z,52928
2017-05-25T08:16:34.847Z,52448
2017-05-25T08:17:44.797Z,49376
2017-05-25T08:18:54.743Z,53568
2017-05-25T08:20:04.359Z,56320
2017-05-25T08:21:14.264Z,61344
2017-05-25T08:22:24.211Z,58624
2017-05-25T08:23:34.456Z,55680
2017-05-25T08:24:44.064Z,59200
2017-05-25T08:25:53.682Z,57344
2017-05-25T08:27:03.746Z,55168
2017-05-25T08:28:13.362Z,51232
2017-05-25T08:29:22.961Z,54560
2017-05-25T08:30:33.177Z,49248
2017-05-25T08:31:42.779Z,43232
2017-05-25T08:32:53.175Z,44576
2017-05-25T08:34:03.421Z,43488
2017-05-25T08:35:13.349Z,52864
2017-05-25T08:36:22.959Z,60960
2017-05-25T08:37:32.909Z,56832
2017-05-25T08:38:42.677Z,50080
2017-05-25T08:39:52.907Z,55328
2017-05-25T08:41:02.824Z,51456
2017-05-25T08:42:12.731Z,55232
2017-05-25T08:43:22.730Z,51616
2017-05-25T08:44:32.784Z,56256
2017-05-25T08:45:42.400Z,57248
2017-05-25T08:46:52.024Z,40064
2017-05-25T08:48:02.241Z,15812
2017-05-25T08:49:12.185Z,7436
2017-05-25T08:50:21.622Z,6008
2017-05-25T08:51:31.882Z,5308
2017-05-25T08:52:41.809Z,4776
2017-05-25T08:53:51.731Z,4460
2017-05-25T08:55:01.659Z,4124
2017-05-25T08:56:11.768Z,4004
2017-05-25T08:57:21.686Z,3724
2017-05-25T08:58:31.904Z,3364
2017-05-25T08:59:42.176Z,2908
2017-05-25T09:00:51.802Z,2696
2017-05-25T09:02:01.568Z,2624
2017-05-25T09:03:11.499Z,2564
2017-05-25T09:04:21.114Z,2556
2017-05-25T09:05:30.725Z,2492
2017-05-25T09:06:40.957Z,2456
2017-05-25T09:07:51.273Z,2408
2017-05-25T09:09:01.508Z,2008
2017-05-25T09:10:11.758Z,1880
2017-05-25T09:11:21.676Z,1888
2017-05-25T09:12:31.285Z,1836
2017-05-25T09:13:41.607Z,1676
2017-05-25T09:14:51.219Z,1772
2017-05-25T09:16:00.833Z,1788
2017-05-25T09:17:10.739Z,1768
2017-05-25T09:18:20.979Z,1736
2017-05-25T09:19:31.558Z,1724
2017-05-25T09:20:41.477Z,1740
2017-05-25T09:21:51.082Z,1804
2017-05-25T09:23:01.001Z,1772
2017-05-25T09:24:10.609Z,1720
2017-05-25T09:25:20.867Z,1728
2017-05-25T09:26:30.811Z,1712
2017-05-25T09:27:40.454Z,1760
2017-05-25T09:28:50.393Z,1736
2017-05-25T09:30:00.610Z,1644
2017-05-25T09:31:09.600Z,1612
2017-05-25T09:32:19.830Z,1672
2017-05-25T09:33:29.752Z,1684
2017-05-25T09:34:39.066Z,1752
2017-05-25T09:35:48.991Z,1780
2017-05-25T09:36:59.238Z,1792
2017-05-25T09:38:09.159Z,1764
2017-05-25T09:39:18.469Z,1752
2017-05-25T09:40:28.092Z,1728
2017-05-25T09:41:38.340Z,1688
2017-05-25T09:42:48.612Z,1660
2017-05-25T09:43:58.224Z,1684
2017-05-25T09:45:08.139Z,1644
2017-05-25T09:46:17.772Z,1632
2017-05-25T09:47:27.727Z,1564
2017-05-25T09:48:37.746Z,1492
2017-05-25T09:49:47.045Z,1500
2017-05-25T09:50:56.977Z,1484
2017-05-25T09:52:06.338Z,1316
2017-05-25T09:53:16.595Z,1316
2017-05-25T09:54:26.864Z,1468
2017-05-25T09:55:36.177Z,1480
2017-05-25T09:56:46.423Z,1416
2017-05-25T09:57:56.342Z,1360
2017-05-25T09:59:05.953Z,1360
2017-05-25T10:00:16.348Z,1276
2017-05-25T10:01:26.258Z,1256
2017-05-25T10:02:36.472Z,1204
2017-05-25T10:03:46.121Z,1132
2017-05-25T10:04:56.369Z,1108
2017-05-25T10:06:06.731Z,1088
2017-05-25T10:07:16.415Z,1116
2017-05-25T10:08:26.665Z,1128
2017-05-25T10:09:36.897Z,1136
2017-05-25T10:10:46.510Z,1132
2017-05-25T10:11:56.890Z,1120
2017-05-25T10:13:06.812Z,1116
2017-05-25T10:14:16.747Z,1088
2017-05-25T10:15:26.357Z,952
2017-05-25T10:16:35.977Z,1088
2017-05-25T10:17:45.748Z,1132
2017-05-25T10:18:55.665Z,948
2017-05-25T10:20:05.296Z,1000
2017-05-25T10:21:14.951Z,1192
2017-05-25T10:22:25.182Z,1180
2017-05-25T10:23:35.470Z,1084
2017-05-25T10:24:45.785Z,1044
2017-05-25T10:25:55.707Z,1044
2017-05-25T10:27:05.631Z,1068
2017-05-25T10:28:15.585Z,1072
2017-05-25T10:29:25.839Z,1068
2017-05-25T10:30:35.756Z,1044
2017-05-25T10:31:45.385Z,1064
2017-05-25T10:32:55.618Z,1088
2017-05-25T10:34:04.942Z,1116
2017-05-25T10:35:15.185Z,1072
2017-05-25T10:36:25.114Z,1016
2017-05-25T10:37:34.424Z,976
2017-05-25T10:38:44.037Z,936
2017-05-25T10:39:53.666Z,924
2017-05-25T10:41:03.997Z,916
2017-05-25T10:42:13.928Z,904
2017-05-25T10:43:23.554Z,912
2017-05-25T10:44:32.559Z,908
2017-05-25T10:45:42.502Z,884
2017-05-25T10:46:52.500Z,872
2017-05-25T10:48:02.734Z,864
2017-05-25T10:49:12.707Z,840
2017-05-25T10:50:22.647Z,856
2017-05-25T10:51:32.897Z,888
2017-05-25T10:52:43.276Z,896
2017-05-25T10:53:53.511Z,924
2017-05-25T10:55:03.499Z,892
2017-05-25T10:56:13.422Z,872
2017-05-25T10:57:22.878Z,884
2017-05-25T10:58:33.260Z,928
2017-05-25T10:59:43.491Z,996
2017-05-25T11:00:53.099Z,964
2017-05-25T11:02:02.714Z,912
2017-05-25T11:03:12.547Z,884
2017-05-25T11:04:22.430Z,856
2017-05-25T11:05:32.085Z,856
2017-05-25T11:06:42.052Z,872
2017-05-25T11:07:52.020Z,872
2017-05-25T11:09:01.962Z,844
2017-05-25T11:10:12.343Z,820
2017-05-25T11:11:21.984Z,800
2017-05-25T11:12:31.628Z,804
2017-05-25T11:13:41.916Z,788
2017-05-25T11:14:51.880Z,828
2017-05-25T11:16:01.974Z,856
2017-05-25T11:17:11.913Z,864
2017-05-25T11:18:22.137Z,848
2017-05-25T11:19:31.771Z,832
2017-05-25T11:20:41.692Z,808
2017-05-25T11:21:51.295Z,776
2017-05-25T11:23:01.511Z,772
2017-05-25T11:24:11.427Z,768
2017-05-25T11:25:21.350Z,768
2017-05-25T11:26:30.340Z,772
2017-05-25T11:27:40.366Z,760
2017-05-25T11:28:50.630Z,740
2017-05-25T11:29:59.974Z,736
2017-05-25T11:31:09.922Z,724
2017-05-25T11:32:19.858Z,708
2017-05-25T11:33:29.579Z,704
2017-05-25T11:34:39.517Z,704
2017-05-25T11:35:49.470Z,688
2017-05-25T11:36:59.398Z,664
2017-05-25T11:38:09.079Z,648
2017-05-25T11:39:19.005Z,656
2017-05-25T11:40:28.637Z,652
2017-05-25T11:41:38.562Z,652
2017-05-25T11:42:48.823Z,648
2017-05-25T11:43:58.756Z,644
2017-05-25T11:45:09.004Z,644
2017-05-25T11:46:18.648Z,628
2017-05-25T11:47:28.017Z,620
2017-05-25T11:48:37.987Z,620
2017-05-25T11:49:48.222Z,620
2017-05-25T11:50:57.833Z,620
2017-05-25T11:52:07.434Z,624
2017-05-25T11:53:16.433Z,644
2017-05-25T11:54:26.354Z,652
2017-05-25T11:55:36.029Z,656
2017-05-25T11:56:45.850Z,660
2017-05-25T11:57:56.109Z,664
2017-05-25T11:59:06.061Z,652
2017-05-25T12:00:16.009Z,636
2017-05-25T12:01:25.322Z,628
2017-05-25T12:02:34.620Z,628
2017-05-25T12:03:44.247Z,632
2017-05-25T12:04:54.469Z,632
2017-05-25T12:06:04.417Z,624
2017-05-25T12:07:14.059Z,624
2017-05-25T12:08:24.279Z,620
2017-05-25T12:09:34.204Z,612
2017-05-25T12:10:43.807Z,612
2017-05-25T12:11:53.732Z,612
2017-05-25T12:13:03.705Z,612
2017-05-25T12:14:13.932Z,616
2017-05-25T12:15:24.547Z,624
2017-05-25T12:16:34.498Z,632
2017-05-25T12:17:44.184Z,648
2017-05-25T12:18:53.911Z,640
2017-05-25T12:20:03.550Z,636
2017-05-25T12:21:13.481Z,628
2017-05-25T12:22:22.784Z,628
2017-05-25T12:23:32.717Z,624
2017-05-25T12:24:43.033Z,624
2017-05-25T12:25:53.011Z,636
2017-05-25T12:27:02.966Z,640
2017-05-25T12:28:13.218Z,656
2017-05-25T12:29:22.565Z,684
2017-05-25T12:30:32.862Z,664
2017-05-25T12:31:42.864Z,636
2017-05-25T12:32:52.489Z,636
2017-05-25T12:34:02.160Z,620
2017-05-25T12:35:11.798Z,616
2017-05-25T12:36:21.708Z,612
2017-05-25T12:37:31.681Z,616
2017-05-25T12:38:41.629Z,620
2017-05-25T12:39:51.551Z,628
2017-05-25T12:41:01.822Z,624
2017-05-25T12:42:11.795Z,620
2017-05-25T12:43:22.085Z,604
2017-05-25T12:44:32.380Z,596
2017-05-25T12:45:42.345Z,596
2017-05-25T12:46:51.671Z,600
2017-05-25T12:48:00.725Z,612
2017-05-25T12:49:10.370Z,604
2017-05-25T12:50:20.362Z,600
2017-05-25T12:51:30.268Z,600
2017-05-25T12:52:40.208Z,596
2017-05-25T12:53:50.144Z,580
2017-05-25T12:55:00.393Z,592
2017-05-25T12:56:10.020Z,596
2017-05-25T12:57:19.979Z,592
2017-05-25T12:58:29.634Z,588
2017-05-25T12:59:39.243Z,588
2017-05-25T13:00:48.863Z,588
2017-05-25T13:01:58.796Z,552
2017-05-25T13:03:08.406Z,572
2017-05-25T13:04:18.331Z,568
2017-05-25T13:05:27.644Z,564
2017-05-25T13:06:37.279Z,568
2017-05-25T13:07:47.499Z,564
2017-05-25T13:08:57.137Z,572
2017-05-25T13:10:06.763Z,576
2017-05-25T13:11:16.379Z,568
2017-05-25T13:12:25.995Z,560
2017-05-25T13:13:35.903Z,556
2017-05-25T13:14:45.829Z,556
2017-05-25T13:15:55.451Z,552
2017-05-25T13:17:05.675Z,544
2017-05-25T13:18:14.992Z,544
2017-05-25T13:19:24.971Z,552
2017-05-25T13:20:34.575Z,548
2017-05-25T13:21:43.884Z,548
2017-05-25T13:22:53.815Z,548
2017-05-25T13:24:03.732Z,536
2017-05-25T13:25:13.037Z,540
2017-05-25T13:26:23.291Z,540
2017-05-25T13:27:33.237Z,536
2017-05-25T13:28:43.503Z,532
2017-05-25T13:29:53.114Z,528
2017-05-25T13:31:02.744Z,532
2017-05-25T13:32:12.367Z,528
2017-05-25T13:33:22.611Z,520
2017-05-25T13:34:32.895Z,524
2017-05-25T13:35:42.826Z,524
2017-05-25T13:36:52.767Z,532
2017-05-25T13:38:02.392Z,524
2017-05-25T13:39:12.639Z,524
2017-05-25T13:40:22.564Z,516
2017-05-25T13:41:32.800Z,520
2017-05-25T13:42:42.781Z,524
2017-05-25T13:43:52.721Z,528
2017-05-25T13:45:02.014Z,528
2017-05-25T13:46:12.327Z,528
2017-05-25T13:47:21.694Z,524
2017-05-25T13:48:31.666Z,524
2017-05-25T13:49:41.902Z,516
2017-05-25T13:50:50.976Z,524
2017-05-25T13:52:01.289Z,524
2017-05-25T13:53:11.304Z,520
2017-05-25T13:54:21.547Z,516
2017-05-25T13:55:30.916Z,508
2017-05-25T13:56:40.243Z,504
2017-05-25T13:57:50.010Z,504
2017-05-25T13:58:59.980Z,512
2017-05-25T14:00:09.593Z,512
2017-05-25T14:01:19.508Z,516
2017-05-25T14:02:29.435Z,512
2017-05-25T14:03:38.768Z,512
2017-05-25T14:04:48.380Z,512
2017-05-25T14:05:57.376Z,508
2017-05-25T14:07:06.992Z,512
2017-05-25T14:08:16.939Z,532
2017-05-25T14:09:26.865Z,512
2017-05-25T14:10:36.157Z,524
2017-05-25T14:11:46.080Z,528
2017-05-25T14:12:56.015Z,516
2017-05-25T14:14:05.929Z,508
2017-05-25T14:15:16.177Z,520
2017-05-25T14:16:25.779Z,524
2017-05-25T14:17:35.128Z,524
2017-05-25T14:18:45.080Z,520
2017-05-25T14:19:54.712Z,524
2017-05-25T14:21:04.657Z,520
2017-05-25T14:22:14.267Z,528
2017-05-25T14:23:24.192Z,540
2017-05-25T14:24:34.269Z,564
2017-05-25T14:25:43.872Z,596
2017-05-25T14:26:54.111Z,632
2017-05-25T14:28:04.398Z,636
2017-05-25T14:29:14.402Z,616
2017-05-25T14:30:23.807Z,608
2017-05-25T14:31:33.770Z,596
2017-05-25T14:32:43.411Z,576
2017-05-25T14:33:53.658Z,552
2017-05-25T14:35:03.314Z,516
2017-05-25T14:36:13.237Z,492
2017-05-25T14:37:22.617Z,496
2017-05-25T14:38:31.986Z,492
2017-05-25T14:40:52.738Z,468
2017-05-25T14:42:03.550Z,364
2017-05-25T14:43:13.151Z,484
2017-05-25T14:44:23.742Z,480
2017-05-25T14:45:33.069Z,476
2017-05-25T14:46:42.994Z,476
2017-05-25T14:47:52.923Z,476
2017-05-25T14:49:03.147Z,480
2017-05-25T14:50:12.452Z,476
2017-05-25T14:51:22.702Z,472
2017-05-25T14:52:32.637Z,472
2017-05-25T14:53:41.962Z,464
2017-05-25T14:54:51.876Z,456
2017-05-25T14:56:02.120Z,316
2017-05-25T14:57:12.046Z,472
2017-05-25T14:58:21.975Z,468
2017-05-25T14:59:31.903Z,372
2017-05-25T15:00:41.833Z,316
2017-05-25T15:01:51.149Z,460
2017-05-25T15:03:01.074Z,468
2017-05-25T15:04:10.705Z,452
2017-05-25T15:05:20.630Z,452
2017-05-25T15:06:30.246Z,440
2017-05-25T15:07:39.854Z,296
2017-05-25T15:08:49.775Z,332
2017-05-25T15:10:00.010Z,444
2017-05-25T15:11:09.949Z,444
2017-05-25T15:12:19.898Z,440
2017-05-25T15:13:30.139Z,440
2017-05-25T15:14:40.059Z,436
2017-05-25T15:15:50.016Z,436
2017-05-25T15:16:59.651Z,436
2017-05-25T15:18:09.614Z,432
2017-05-25T15:19:19.581Z,432
2017-05-25T15:20:28.891Z,432
2017-05-25T15:21:38.834Z,432
2017-05-25T15:26:28.952Z,424
2017-05-25T15:27:38.913Z,420
2017-05-25T15:28:48.531Z,420
2017-05-25T15:29:58.137Z,424
2017-05-25T15:31:08.069Z,424
2017-05-25T15:32:18.304Z,428
2017-05-25T15:33:28.241Z,420
2017-05-25T15:34:38.488Z,412
2017-05-25T15:35:48.410Z,416
2017-05-25T15:36:57.715Z,424
2017-05-25T15:38:07.625Z,420
2017-05-25T15:39:16.954Z,428
2017-05-25T15:40:27.218Z,432
2017-05-25T15:41:36.827Z,428
2017-05-25T15:42:46.739Z,428
2017-05-25T15:43:56.665Z,424
2017-05-25T15:45:06.568Z,424
2017-05-25T15:46:16.181Z,428
2017-05-25T15:47:26.397Z,404
2017-05-25T15:48:36.305Z,424
2017-05-25T15:49:45.920Z,428
2017-05-25T15:50:55.535Z,424
2017-05-25T15:52:05.451Z,416
2017-05-25T15:53:15.074Z,420
2017-05-25T15:54:25.001Z,428
2017-05-25T15:55:34.608Z,420
2017-05-25T15:56:44.576Z,420
2017-05-25T15:57:54.497Z,416
2017-05-25T15:59:04.737Z,420
2017-05-25T16:00:14.368Z,420
2017-05-25T16:01:24.712Z,420
2017-05-25T16:02:34.955Z,420
2017-05-25T16:03:45.203Z,420
2017-05-25T16:04:55.131Z,416
2017-05-25T16:06:05.367Z,416